createdAt,value
2023-02-22T06:42:43.210Z,34.83
2023-02-22T06:46:02.279Z,41.30
2023-02-22T06:49:02.207Z,34.23
2023-02-22T06:51:56.773Z,34.83
2023-02-22T06:55:09.320Z,49.13
2023-02-22T06:58:44.235Z,37.03
2023-02-22T07:02:05.640Z,37.43
2023-02-22T07:05:07.308Z,44.87
2023-02-22T07:08:24.185Z,31.30
2023-02-22T07:15:44.147Z,50.47
2023-02-22T07:18:53.613Z,42.03
2023-02-22T07:22:02.419Z,36.17
2023-02-22T07:25:03.432Z,48.30
2023-02-22T07:28:08.817Z,39.80
2023-02-22T07:31:18.488Z,35.07
2023-02-22T07:34:19.813Z,46.23
2023-02-22T07:37:46.475Z,48.10
2023-02-22T07:40:57.356Z,45.17
2023-02-22T07:44:24.368Z,42.13
2023-02-22T07:51:04.895Z,55.30
2023-02-22T07:53:59.511Z,33.77
2023-02-22T07:56:54.422Z,41.87
2023-02-22T08:00:15.708Z,40.07
2023-02-22T08:03:34.051Z,41.07
2023-02-22T08:10:07.591Z,49.67
2023-02-22T08:13:13.519Z,41.10
2023-02-22T08:16:11.413Z,43.90
2023-02-22T08:19:11.778Z,36.87
2023-02-22T08:22:49.740Z,47.22
2023-02-22T08:25:54.939Z,44.60
2023-02-22T08:32:07.074Z,41.47
2023-02-22T08:35:16.597Z,36.07
2023-02-22T08:38:50.380Z,36.60
2023-02-22T08:45:57.752Z,37.20
2023-02-22T08:49:41.970Z,38.77
2023-02-22T17:11:08.155Z,26.40
2023-02-22T17:14:02.658Z,28.00
2023-02-22T17:16:57.675Z,27.40
2023-02-22T17:19:51.938Z,24.98
2023-02-22T17:22:43.313Z,26.00
2023-02-22T17:25:38.684Z,37.73
2023-02-22T17:28:30.154Z,22.27
2023-02-22T17:31:27.972Z,22.87
2023-02-22T17:34:21.252Z,18.40
2023-02-22T17:37:16.642Z,38.53
2023-02-22T17:40:07.324Z,32.50
2023-02-22T17:42:58.677Z,21.83
2023-02-22T17:45:55.751Z,29.63
2023-02-22T17:48:53.892Z,20.03
2023-02-22T17:51:53.447Z,19.50
2023-02-22T17:54:59.715Z,19.52
2023-02-22T17:57:58.499Z,23.97
2023-02-22T18:01:00.330Z,19.10
2023-02-22T18:04:05.975Z,18.20
2023-02-22T18:07:17.565Z,29.67
2023-02-22T18:10:15.715Z,21.93
2023-02-22T18:13:11.034Z,17.90
2023-02-22T18:16:14.164Z,23.10
2023-02-22T18:19:09.782Z,32.77
2023-02-22T18:22:24.265Z,25.80
2023-02-22T18:25:17.694Z,21.30
2023-02-22T18:28:13.274Z,15.75
2023-02-22T18:31:21.101Z,14.80
2023-02-22T18:34:25.421Z,21.47
2023-02-22T18:37:24.241Z,26.67
2023-02-22T18:40:16.312Z,25.17
2023-02-22T18:43:10.175Z,17.23
2023-02-22T18:46:12.974Z,25.83
2023-02-22T18:49:16.567Z,28.10
2023-02-22T18:52:08.625Z,17.53
2023-02-22T18:55:06.119Z,24.10
2023-02-22T18:58:02.616Z,12.43
2023-02-22T19:01:05.011Z,24.07
2023-02-22T19:04:06.714Z,20.67
2023-02-22T19:07:01.035Z,15.80
2023-02-22T19:09:54.916Z,21.97
2023-02-22T19:13:24.770Z,19.43
2023-02-22T19:16:30.721Z,16.67
2023-02-22T19:19:37.809Z,25.93
2023-02-22T19:25:37.336Z,31.70
2023-02-22T19:28:46.053Z,20.30
2023-02-22T19:31:44.324Z,25.13
2023-02-22T19:34:54.621Z,26.80
2023-02-22T19:38:11.103Z,30.30
2023-02-22T19:41:27.475Z,17.33
2023-02-22T19:44:29.561Z,18.40
2023-02-22T19:47:29.088Z,25.00
2023-02-22T19:50:54.654Z,17.37
2023-02-22T19:54:02.317Z,15.30
2023-02-22T19:57:04.714Z,16.83
2023-02-22T20:00:11.808Z,23.33
2023-02-22T20:03:14.066Z,22.43
2023-02-22T20:06:09.934Z,12.80
2023-02-22T20:09:07.605Z,21.65
2023-02-22T20:12:01.059Z,15.57
2023-02-22T20:14:59.083Z,14.27
2023-02-22T20:18:22.768Z,17.30
2023-02-22T20:21:30.632Z,18.50
2023-02-22T20:24:32.631Z,22.73
2023-02-22T20:30:46.058Z,15.00
2023-02-22T20:33:48.503Z,23.30
2023-02-22T20:37:12.141Z,20.53
2023-02-22T20:40:08.959Z,17.83
2023-02-22T20:43:11.797Z,17.50
2023-02-22T20:46:08.452Z,26.10
2023-02-22T20:49:09.574Z,11.23
2023-02-22T20:52:10.218Z,23.23
2023-02-22T20:55:13.166Z,21.30
2023-02-22T20:58:16.925Z,20.27
2023-02-22T21:01:18.266Z,25.13
2023-02-22T21:04:28.438Z,27.87
2023-02-22T23:32:06.520Z,41.37
2023-02-22T23:35:34.602Z,41.50
2023-02-22T23:38:40.855Z,43.20
2023-02-22T23:42:29.040Z,45.53
2023-02-22T23:49:02.697Z,36.63
2023-02-22T23:51:55.348Z,40.37
2023-02-22T23:54:52.808Z,35.00
2023-02-22T23:57:57.145Z,40.33
